sensor_id;sensor_type;location;lat;lon;timestamp;P1;durP1;ratioP1;P2;durP2;ratioP2
8407;SDS011;4241;48.452;9.216;2023-07-29T00:01:08;479.40;;;205.13;;
8407;SDS011;4241;48.452;9.216;2023-07-29T00:03:35;481.00;;;209.80;;
8407;SDS011;4241;48.452;9.216;2023-07-29T00:06:02;479.27;;;204.93;;
8407;SDS011;4241;48.452;9.216;2023-07-29T00:08:29;480.07;;;206.77;;
8407;SDS011;4241;48.452;9.216;2023-07-29T00:10:56;479.47;;;208.03;;
8407;SDS011;4241;48.452;9.216;2023-07-29T00:13:24;478.90;;;206.60;;
8407;SDS011;4241;48.452;9.216;2023-07-29T00:15:53;480.23;;;210.10;;
8407;SDS011;4241;48.452;9.216;2023-07-29T00:18:20;480.10;;;204.33;;
8407;SDS011;4241;48.452;9.216;2023-07-29T00:20:47;479.73;;;205.90;;
8407;SDS011;4241;48.452;9.216;2023-07-29T00:23:15;476.80;;;197.47;;
8407;SDS011;4241;48.452;9.216;2023-07-29T00:25:42;480.67;;;207.73;;
8407;SDS011;4241;48.452;9.216;2023-07-29T00:28:09;480.30;;;207.97;;
8407;SDS011;4241;48.452;9.216;2023-07-29T00:30:37;481.50;;;208.93;;
8407;SDS011;4241;48.452;9.216;2023-07-29T00:33:04;479.50;;;205.83;;
8407;SDS011;4241;48.452;9.216;2023-07-29T00:35:31;478.93;;;203.80;;
8407;SDS011;4241;48.452;9.216;2023-07-29T00:37:58;477.93;;;203.87;;
8407;SDS011;4241;48.452;9.216;2023-07-29T00:40:25;479.40;;;205.17;;
8407;SDS011;4241;48.452;9.216;2023-07-29T00:43:01;479.10;;;203.83;;
8407;SDS011;4241;48.452;9.216;2023-07-29T00:45:27;477.83;;;202.90;;
8407;SDS011;4241;48.452;9.216;2023-07-29T00:47:57;479.77;;;206.07;;
8407;SDS011;4241;48.452;9.216;2023-07-29T00:50:24;478.43;;;204.40;;
8407;SDS011;4241;48.452;9.216;2023-07-29T00:52:52;480.07;;;207.20;;
8407;SDS011;4241;48.452;9.216;2023-07-29T00:55:20;478.70;;;204.83;;
8407;SDS011;4241;48.452;9.216;2023-07-29T00:57:46;478.23;;;200.77;;
8407;SDS011;4241;48.452;9.216;2023-07-29T01:00:16;479.00;;;203.67;;
8407;SDS011;4241;48.452;9.216;2023-07-29T01:02:43;479.03;;;205.30;;
8407;SDS011;4241;48.452;9.216;2023-07-29T01:05:12;478.93;;;206.47;;
8407;SDS011;4241;48.452;9.216;2023-07-29T01:07:44;481.90;;;207.57;;
8407;SDS011;4241;48.452;9.216;2023-07-29T01:10:17;479.57;;;206.97;;
8407;SDS011;4241;48.452;9.216;2023-07-29T01:12:54;482.53;;;205.30;;
8407;SDS011;4241;48.452;9.216;2023-07-29T01:15:28;480.13;;;205.90;;
8407;SDS011;4241;48.452;9.216;2023-07-29T01:18:02;480.37;;;206.60;;
8407;SDS011;4241;48.452;9.216;2023-07-29T01:20:34;478.93;;;202.37;;
8407;SDS011;4241;48.452;9.216;2023-07-29T01:23:04;478.30;;;204.67;;
8407;SDS011;4241;48.452;9.216;2023-07-29T01:25:33;480.60;;;206.83;;
8407;SDS011;4241;48.452;9.216;2023-07-29T01:27:59;478.40;;;204.50;;
8407;SDS011;4241;48.452;9.216;2023-07-29T01:30:29;480.40;;;207.87;;
8407;SDS011;4241;48.452;9.216;2023-07-29T01:32:59;478.63;;;205.73;;
8407;SDS011;4241;48.452;9.216;2023-07-29T01:35:35;479.43;;;205.87;;
8407;SDS011;4241;48.452;9.216;2023-07-29T01:38:09;477.90;;;202.67;;
8407;SDS011;4241;48.452;9.216;2023-07-29T01:40:45;495.47;;;223.87;;
8407;SDS011;4241;48.452;9.216;2023-07-29T01:43:13;478.93;;;208.57;;
8407;SDS011;4241;48.452;9.216;2023-07-29T01:45:40;480.57;;;208.80;;
8407;SDS011;4241;48.452;9.216;2023-07-29T01:48:07;477.47;;;205.07;;
8407;SDS011;4241;48.452;9.216;2023-07-29T01:50:34;482.37;;;209.10;;
8407;SDS011;4241;48.452;9.216;2023-07-29T01:53:01;478.00;;;204.17;;
8407;SDS011;4241;48.452;9.216;2023-07-29T01:55:28;478.97;;;205.10;;
8407;SDS011;4241;48.452;9.216;2023-07-29T01:57:57;480.80;;;208.80;;
8407;SDS011;4241;48.452;9.216;2023-07-29T02:00:24;482.07;;;208.20;;
8407;SDS011;4241;48.452;9.216;2023-07-29T02:02:51;480.23;;;208.10;;
8407;SDS011;4241;48.452;9.216;2023-07-29T02:05:17;478.67;;;202.63;;
8407;SDS011;4241;48.452;9.216;2023-07-29T02:07:45;477.87;;;204.63;;
8407;SDS011;4241;48.452;9.216;2023-07-29T02:10:11;478.83;;;204.10;;
8407;SDS011;4241;48.452;9.216;2023-07-29T02:12:38;478.33;;;203.00;;
8407;SDS011;4241;48.452;9.216;2023-07-29T02:15:07;483.37;;;209.53;;
8407;SDS011;4241;48.452;9.216;2023-07-29T02:17:35;477.13;;;202.17;;
8407;SDS011;4241;48.452;9.216;2023-07-29T02:20:02;477.77;;;202.57;;
8407;SDS011;4241;48.452;9.216;2023-07-29T02:22:29;477.23;;;199.83;;
8407;SDS011;4241;48.452;9.216;2023-07-29T02:24:56;484.00;;;205.60;;
8407;SDS011;4241;48.452;9.216;2023-07-29T02:27:23;479.17;;;202.93;;
8407;SDS011;4241;48.452;9.216;2023-07-29T02:29:52;481.73;;;208.00;;
8407;SDS011;4241;48.452;9.216;2023-07-29T02:32:20;477.60;;;200.30;;
8407;SDS011;4241;48.452;9.216;2023-07-29T02:34:47;478.57;;;203.10;;
8407;SDS011;4241;48.452;9.216;2023-07-29T02:37:14;504.40;;;222.93;;
8407;SDS011;4241;48.452;9.216;2023-07-29T02:39:41;476.93;;;198.93;;
8407;SDS011;4241;48.452;9.216;2023-07-29T02:42:08;476.53;;;198.67;;
8407;SDS011;4241;48.452;9.216;2023-07-29T02:44:35;477.37;;;199.90;;
8407;SDS011;4241;48.452;9.216;2023-07-29T02:47:02;477.33;;;199.10;;
8407;SDS011;4241;48.452;9.216;2023-07-29T02:49:30;475.83;;;198.33;;
8407;SDS011;4241;48.452;9.216;2023-07-29T02:51:57;478.03;;;199.57;;
8407;SDS011;4241;48.452;9.216;2023-07-29T02:54:24;475.10;;;195.27;;
8407;SDS011;4241;48.452;9.216;2023-07-29T02:56:51;477.00;;;198.93;;
8407;SDS011;4241;48.452;9.216;2023-07-29T02:59:19;478.27;;;201.23;;
8407;SDS011;4241;48.452;9.216;2023-07-29T03:01:46;478.10;;;200.73;;
8407;SDS011;4241;48.452;9.216;2023-07-29T03:04:12;478.07;;;201.57;;
8407;SDS011;4241;48.452;9.216;2023-07-29T03:06:41;480.13;;;203.67;;
8407;SDS011;4241;48.452;9.216;2023-07-29T03:09:08;479.90;;;203.10;;
8407;SDS011;4241;48.452;9.216;2023-07-29T03:11:34;476.83;;;199.87;;
8407;SDS011;4241;48.452;9.216;2023-07-29T03:14:02;480.90;;;203.47;;
8407;SDS011;4241;48.452;9.216;2023-07-29T03:16:29;475.87;;;198.83;;
8407;SDS011;4241;48.452;9.216;2023-07-29T03:18:56;481.87;;;203.07;;
8407;SDS011;4241;48.452;9.216;2023-07-29T03:21:25;477.67;;;204.03;;
8407;SDS011;4241;48.452;9.216;2023-07-29T03:23:53;484.77;;;209.73;;
8407;SDS011;4241;48.452;9.216;2023-07-29T03:26:20;477.20;;;202.03;;
8407;SDS011;4241;48.452;9.216;2023-07-29T03:28:47;477.87;;;199.90;;
8407;SDS011;4241;48.452;9.216;2023-07-29T03:31:14;476.53;;;198.87;;
8407;SDS011;4241;48.452;9.216;2023-07-29T03:33:41;476.17;;;199.23;;
8407;SDS011;4241;48.452;9.216;2023-07-29T03:36:07;476.67;;;201.77;;
8407;SDS011;4241;48.452;9.216;2023-07-29T03:38:34;478.80;;;205.10;;
8407;SDS011;4241;48.452;9.216;2023-07-29T03:41:06;476.80;;;200.23;;
8407;SDS011;4241;48.452;9.216;2023-07-29T03:43:33;477.27;;;199.73;;
8407;SDS011;4241;48.452;9.216;2023-07-29T03:46:00;480.57;;;205.57;;
8407;SDS011;4241;48.452;9.216;2023-07-29T03:48:27;478.73;;;202.77;;
8407;SDS011;4241;48.452;9.216;2023-07-29T03:50:56;476.10;;;199.10;;
8407;SDS011;4241;48.452;9.216;2023-07-29T03:53:23;476.33;;;197.97;;
8407;SDS011;4241;48.452;9.216;2023-07-29T03:55:50;481.43;;;205.73;;
8407;SDS011;4241;48.452;9.216;2023-07-29T03:58:18;477.03;;;201.73;;
8407;SDS011;4241;48.452;9.216;2023-07-29T04:00:48;476.50;;;200.53;;
8407;SDS011;4241;48.452;9.216;2023-07-29T04:03:15;475.80;;;202.20;;
8407;SDS011;4241;48.452;9.216;2023-07-29T04:05:42;481.63;;;205.20;;
8407;SDS011;4241;48.452;9.216;2023-07-29T04:08:08;474.87;;;199.27;;
8407;SDS011;4241;48.452;9.216;2023-07-29T04:10:35;486.33;;;208.77;;
8407;SDS011;4241;48.452;9.216;2023-07-29T04:13:03;475.37;;;197.33;;
8407;SDS011;4241;48.452;9.216;2023-07-29T04:15:31;477.10;;;201.53;;
8407;SDS011;4241;48.452;9.216;2023-07-29T04:17:58;476.23;;;198.13;;
8407;SDS011;4241;48.452;9.216;2023-07-29T04:20:25;477.97;;;203.47;;
8407;SDS011;4241;48.452;9.216;2023-07-29T04:22:52;479.13;;;204.00;;
8407;SDS011;4241;48.452;9.216;2023-07-29T04:25:19;479.30;;;202.80;;
8407;SDS011;4241;48.452;9.216;2023-07-29T04:27:46;479.70;;;204.67;;
8407;SDS011;4241;48.452;9.216;2023-07-29T04:30:12;479.60;;;206.77;;
8407;SDS011;4241;48.452;9.216;2023-07-29T04:32:41;481.47;;;209.03;;
8407;SDS011;4241;48.452;9.216;2023-07-29T04:35:09;478.33;;;204.30;;
8407;SDS011;4241;48.452;9.216;2023-07-29T04:37:37;480.00;;;207.43;;
8407;SDS011;4241;48.452;9.216;2023-07-29T04:40:04;476.97;;;201.90;;
8407;SDS011;4241;48.452;9.216;2023-07-29T04:42:32;478.27;;;204.37;;
8407;SDS011;4241;48.452;9.216;2023-07-29T04:44:58;479.77;;;205.43;;
8407;SDS011;4241;48.452;9.216;2023-07-29T04:47:25;480.53;;;207.77;;
8407;SDS011;4241;48.452;9.216;2023-07-29T04:49:53;476.97;;;204.93;;
8407;SDS011;4241;48.452;9.216;2023-07-29T04:52:20;477.80;;;207.23;;
8407;SDS011;4241;48.452;9.216;2023-07-29T04:54:47;480.70;;;213.70;;
8407;SDS011;4241;48.452;9.216;2023-07-29T04:57:14;479.10;;;209.77;;
8407;SDS011;4241;48.452;9.216;2023-07-29T04:59:41;481.03;;;215.33;;
8407;SDS011;4241;48.452;9.216;2023-07-29T05:02:08;480.67;;;214.40;;
8407;SDS011;4241;48.452;9.216;2023-07-29T05:04:35;480.10;;;214.90;;
8407;SDS011;4241;48.452;9.216;2023-07-29T05:07:03;481.00;;;215.27;;
8407;SDS011;4241;48.452;9.216;2023-07-29T05:09:30;483.50;;;217.13;;
8407;SDS011;4241;48.452;9.216;2023-07-29T05:11:57;483.23;;;217.00;;
8407;SDS011;4241;48.452;9.216;2023-07-29T05:14:24;482.47;;;215.33;;
8407;SDS011;4241;48.452;9.216;2023-07-29T05:16:51;481.77;;;218.50;;
8407;SDS011;4241;48.452;9.216;2023-07-29T05:19:18;482.23;;;217.53;;
8407;SDS011;4241;48.452;9.216;2023-07-29T05:21:45;482.60;;;218.20;;
8407;SDS011;4241;48.452;9.216;2023-07-29T05:24:14;481.40;;;215.23;;
8407;SDS011;4241;48.452;9.216;2023-07-29T05:26:40;481.33;;;215.20;;
8407;SDS011;4241;48.452;9.216;2023-07-29T05:29:07;480.50;;;214.87;;
8407;SDS011;4241;48.452;9.216;2023-07-29T05:31:34;482.10;;;214.93;;
8407;SDS011;4241;48.452;9.216;2023-07-29T05:34:01;486.87;;;223.53;;
8407;SDS011;4241;48.452;9.216;2023-07-29T05:36:28;514.57;;;245.87;;
8407;SDS011;4241;48.452;9.216;2023-07-29T05:38:55;480.07;;;213.37;;
8407;SDS011;4241;48.452;9.216;2023-07-29T05:41:24;482.97;;;222.53;;
8407;SDS011;4241;48.452;9.216;2023-07-29T05:43:51;483.90;;;218.63;;
8407;SDS011;4241;48.452;9.216;2023-07-29T05:46:18;489.23;;;221.87;;
8407;SDS011;4241;48.452;9.216;2023-07-29T05:48:45;484.23;;;218.40;;
8407;SDS011;4241;48.452;9.216;2023-07-29T05:51:11;484.33;;;217.73;;
8407;SDS011;4241;48.452;9.216;2023-07-29T05:53:38;483.43;;;219.00;;
8407;SDS011;4241;48.452;9.216;2023-07-29T05:56:05;483.13;;;219.07;;
8407;SDS011;4241;48.452;9.216;2023-07-29T05:58:34;483.77;;;222.50;;
8407;SDS011;4241;48.452;9.216;2023-07-29T06:01:01;486.43;;;225.40;;
8407;SDS011;4241;48.452;9.216;2023-07-29T06:03:28;484.60;;;223.37;;
8407;SDS011;4241;48.452;9.216;2023-07-29T06:05:55;486.30;;;229.50;;
8407;SDS011;4241;48.452;9.216;2023-07-29T06:08:22;490.50;;;233.77;;
8407;SDS011;4241;48.452;9.216;2023-07-29T06:10:49;485.93;;;229.50;;
8407;SDS011;4241;48.452;9.216;2023-07-29T06:13:16;487.60;;;233.83;;
8407;SDS011;4241;48.452;9.216;2023-07-29T06:15:44;487.00;;;233.03;;
8407;SDS011;4241;48.452;9.216;2023-07-29T06:18:11;486.17;;;230.27;;
8407;SDS011;4241;48.452;9.216;2023-07-29T06:20:38;490.53;;;237.30;;
8407;SDS011;4241;48.452;9.216;2023-07-29T06:23:04;488.93;;;236.47;;
8407;SDS011;4241;48.452;9.216;2023-07-29T06:25:31;490.80;;;240.00;;
8407;SDS011;4241;48.452;9.216;2023-07-29T06:27:59;492.40;;;243.00;;
8407;SDS011;4241;48.452;9.216;2023-07-29T06:30:26;490.33;;;241.30;;
8407;SDS011;4241;48.452;9.216;2023-07-29T06:32:54;490.80;;;239.40;;
8407;SDS011;4241;48.452;9.216;2023-07-29T06:35:21;488.67;;;239.70;;
8407;SDS011;4241;48.452;9.216;2023-07-29T06:37:48;489.97;;;241.20;;
8407;SDS011;4241;48.452;9.216;2023-07-29T06:40:15;490.63;;;245.03;;
8407;SDS011;4241;48.452;9.216;2023-07-29T06:42:42;491.87;;;245.03;;
8407;SDS011;4241;48.452;9.216;2023-07-29T06:45:10;493.23;;;248.53;;
8407;SDS011;4241;48.452;9.216;2023-07-29T06:47:36;487.97;;;246.30;;
8407;SDS011;4241;48.452;9.216;2023-07-29T06:50:05;488.07;;;239.13;;
8407;SDS011;4241;48.452;9.216;2023-07-29T06:52:32;488.70;;;240.87;;
8407;SDS011;4241;48.452;9.216;2023-07-29T06:54:59;486.77;;;236.50;;
8407;SDS011;4241;48.452;9.216;2023-07-29T06:57:26;488.33;;;243.33;;
8407;SDS011;4241;48.452;9.216;2023-07-29T06:59:53;487.77;;;241.40;;
8407;SDS011;4241;48.452;9.216;2023-07-29T07:02:20;485.20;;;239.33;;
8407;SDS011;4241;48.452;9.216;2023-07-29T07:04:47;485.73;;;237.87;;
8407;SDS011;4241;48.452;9.216;2023-07-29T07:07:15;485.17;;;235.17;;
8407;SDS011;4241;48.452;9.216;2023-07-29T07:09:42;488.17;;;238.77;;
8407;SDS011;4241;48.452;9.216;2023-07-29T07:12:09;488.10;;;238.37;;
8407;SDS011;4241;48.452;9.216;2023-07-29T07:14:38;488.97;;;237.50;;
8407;SDS011;4241;48.452;9.216;2023-07-29T07:17:05;487.50;;;233.53;;
8407;SDS011;4241;48.452;9.216;2023-07-29T07:19:33;487.93;;;232.17;;
8407;SDS011;4241;48.452;9.216;2023-07-29T07:21:59;489.47;;;234.07;;
8407;SDS011;4241;48.452;9.216;2023-07-29T07:24:27;486.17;;;229.10;;
8407;SDS011;4241;48.452;9.216;2023-07-29T07:26:54;486.00;;;229.80;;
8407;SDS011;4241;48.452;9.216;2023-07-29T07:29:21;486.40;;;228.27;;
8407;SDS011;4241;48.452;9.216;2023-07-29T07:31:49;485.63;;;228.90;;
8407;SDS011;4241;48.452;9.216;2023-07-29T07:34:17;486.07;;;225.30;;
8407;SDS011;4241;48.452;9.216;2023-07-29T07:36:44;515.87;;;256.40;;
8407;SDS011;4241;48.452;9.216;2023-07-29T07:39:11;485.10;;;225.70;;
8407;SDS011;4241;48.452;9.216;2023-07-29T07:41:39;485.97;;;229.50;;
8407;SDS011;4241;48.452;9.216;2023-07-29T07:44:06;492.40;;;232.43;;
8407;SDS011;4241;48.452;9.216;2023-07-29T07:46:33;494.60;;;238.90;;
8407;SDS011;4241;48.452;9.216;2023-07-29T07:49:00;486.33;;;230.43;;
8407;SDS011;4241;48.452;9.216;2023-07-29T07:51:27;487.13;;;230.17;;
8407;SDS011;4241;48.452;9.216;2023-07-29T07:53:54;487.33;;;228.93;;
8407;SDS011;4241;48.452;9.216;2023-07-29T07:56:20;486.73;;;233.87;;
8407;SDS011;4241;48.452;9.216;2023-07-29T07:58:49;493.53;;;236.07;;
8407;SDS011;4241;48.452;9.216;2023-07-29T08:01:15;488.87;;;233.03;;
8407;SDS011;4241;48.452;9.216;2023-07-29T08:03:42;492.70;;;237.17;;
8407;SDS011;4241;48.452;9.216;2023-07-29T08:06:09;486.73;;;229.93;;
8407;SDS011;4241;48.452;9.216;2023-07-29T08:08:36;487.20;;;231.40;;
8407;SDS011;4241;48.452;9.216;2023-07-29T08:11:03;486.37;;;229.93;;
8407;SDS011;4241;48.452;9.216;2023-07-29T08:13:30;486.70;;;229.40;;
8407;SDS011;4241;48.452;9.216;2023-07-29T08:15:58;489.17;;;233.23;;
8407;SDS011;4241;48.452;9.216;2023-07-29T08:18:25;490.27;;;232.67;;
8407;SDS011;4241;48.452;9.216;2023-07-29T08:20:52;506.90;;;250.23;;
8407;SDS011;4241;48.452;9.216;2023-07-29T08:23:20;489.03;;;233.90;;
8407;SDS011;4241;48.452;9.216;2023-07-29T08:25:50;490.43;;;237.07;;
8407;SDS011;4241;48.452;9.216;2023-07-29T08:28:18;489.37;;;236.33;;
8407;SDS011;4241;48.452;9.216;2023-07-29T08:30:46;488.53;;;236.93;;
8407;SDS011;4241;48.452;9.216;2023-07-29T08:33:14;489.10;;;241.83;;
8407;SDS011;4241;48.452;9.216;2023-07-29T08:35:42;491.43;;;243.70;;
8407;SDS011;4241;48.452;9.216;2023-07-29T08:38:09;492.00;;;247.40;;
8407;SDS011;4241;48.452;9.216;2023-07-29T08:40:37;489.10;;;239.27;;
8407;SDS011;4241;48.452;9.216;2023-07-29T08:43:07;490.87;;;245.77;;
8407;SDS011;4241;48.452;9.216;2023-07-29T08:45:37;489.37;;;243.33;;
8407;SDS011;4241;48.452;9.216;2023-07-29T08:48:06;490.53;;;244.73;;
8407;SDS011;4241;48.452;9.216;2023-07-29T08:50:37;490.07;;;244.63;;
8407;SDS011;4241;48.452;9.216;2023-07-29T08:53:04;489.70;;;244.80;;
8407;SDS011;4241;48.452;9.216;2023-07-29T08:55:31;490.93;;;246.90;;
8407;SDS011;4241;48.452;9.216;2023-07-29T08:57:59;493.27;;;253.23;;
8407;SDS011;4241;48.452;9.216;2023-07-29T09:00:26;496.03;;;261.63;;
8407;SDS011;4241;48.452;9.216;2023-07-29T09:02:53;494.63;;;264.13;;
8407;SDS011;4241;48.452;9.216;2023-07-29T09:05:20;497.00;;;274.17;;
8407;SDS011;4241;48.452;9.216;2023-07-29T09:07:49;507.77;;;286.73;;
8407;SDS011;4241;48.452;9.216;2023-07-29T09:10:18;499.63;;;281.17;;
8407;SDS011;4241;48.452;9.216;2023-07-29T09:12:47;503.87;;;290.43;;
8407;SDS011;4241;48.452;9.216;2023-07-29T09:15:21;501.17;;;291.00;;
8407;SDS011;4241;48.452;9.216;2023-07-29T09:17:52;503.80;;;295.57;;
8407;SDS011;4241;48.452;9.216;2023-07-29T09:20:23;500.57;;;293.67;;
8407;SDS011;4241;48.452;9.216;2023-07-29T09:22:52;501.77;;;296.00;;
8407;SDS011;4241;48.452;9.216;2023-07-29T09:25:22;498.80;;;291.57;;
8407;SDS011;4241;48.452;9.216;2023-07-29T09:27:50;502.07;;;297.00;;
8407;SDS011;4241;48.452;9.216;2023-07-29T09:30:16;500.80;;;295.43;;
8407;SDS011;4241;48.452;9.216;2023-07-29T09:32:43;503.47;;;301.37;;
8407;SDS011;4241;48.452;9.216;2023-07-29T09:35:10;501.17;;;299.37;;
8407;SDS011;4241;48.452;9.216;2023-07-29T09:37:37;519.77;;;313.07;;
8407;SDS011;4241;48.452;9.216;2023-07-29T09:40:07;505.07;;;304.67;;
8407;SDS011;4241;48.452;9.216;2023-07-29T09:42:41;505.00;;;306.57;;
8407;SDS011;4241;48.452;9.216;2023-07-29T09:45:19;504.93;;;309.33;;
8407;SDS011;4241;48.452;9.216;2023-07-29T09:47:46;505.50;;;309.53;;
8407;SDS011;4241;48.452;9.216;2023-07-29T09:50:14;507.03;;;315.83;;
8407;SDS011;4241;48.452;9.216;2023-07-29T09:52:41;506.87;;;315.83;;
8407;SDS011;4241;48.452;9.216;2023-07-29T09:55:10;506.27;;;316.67;;
8407;SDS011;4241;48.452;9.216;2023-07-29T09:57:38;505.73;;;314.73;;
8407;SDS011;4241;48.452;9.216;2023-07-29T10:00:06;517.83;;;327.40;;
8407;SDS011;4241;48.452;9.216;2023-07-29T10:02:36;508.10;;;325.43;;
8407;SDS011;4241;48.452;9.216;2023-07-29T10:05:04;509.30;;;328.13;;
8407;SDS011;4241;48.452;9.216;2023-07-29T10:07:32;515.07;;;337.30;;
8407;SDS011;4241;48.452;9.216;2023-07-29T10:10:01;509.87;;;336.17;;
8407;SDS011;4241;48.452;9.216;2023-07-29T10:12:32;509.37;;;334.83;;
8407;SDS011;4241;48.452;9.216;2023-07-29T10:14:59;507.73;;;330.83;;
8407;SDS011;4241;48.452;9.216;2023-07-29T10:17:28;510.90;;;332.50;;
8407;SDS011;4241;48.452;9.216;2023-07-29T10:19:56;507.87;;;326.37;;
8407;SDS011;4241;48.452;9.216;2023-07-29T10:22:24;506.63;;;321.77;;
8407;SDS011;4241;48.452;9.216;2023-07-29T10:24:55;505.70;;;317.07;;
8407;SDS011;4241;48.452;9.216;2023-07-29T10:27:33;505.17;;;313.47;;
8407;SDS011;4241;48.452;9.216;2023-07-29T10:30:08;518.80;;;325.97;;
8407;SDS011;4241;48.452;9.216;2023-07-29T10:32:37;508.23;;;326.13;;
8407;SDS011;4241;48.452;9.216;2023-07-29T10:35:07;507.03;;;322.13;;
8407;SDS011;4241;48.452;9.216;2023-07-29T10:37:35;528.77;;;347.07;;
8407;SDS011;4241;48.452;9.216;2023-07-29T10:40:05;507.00;;;324.43;;
8407;SDS011;4241;48.452;9.216;2023-07-29T10:42:34;507.50;;;329.97;;
8407;SDS011;4241;48.452;9.216;2023-07-29T10:45:16;509.10;;;336.77;;
8407;SDS011;4241;48.452;9.216;2023-07-29T10:47:44;512.90;;;345.83;;
8407;SDS011;4241;48.452;9.216;2023-07-29T10:50:16;510.70;;;344.53;;
8407;SDS011;4241;48.452;9.216;2023-07-29T10:52:46;514.00;;;348.93;;
8407;SDS011;4241;48.452;9.216;2023-07-29T10:55:23;514.53;;;353.23;;
8407;SDS011;4241;48.452;9.216;2023-07-29T10:57:54;520.10;;;365.50;;
8407;SDS011;4241;48.452;9.216;2023-07-29T11:00:31;514.00;;;363.03;;
8407;SDS011;4241;48.452;9.216;2023-07-29T11:02:59;514.50;;;364.67;;
8407;SDS011;4241;48.452;9.216;2023-07-29T11:05:27;513.93;;;362.73;;
8407;SDS011;4241;48.452;9.216;2023-07-29T11:08:16;514.33;;;360.20;;
8407;SDS011;4241;48.452;9.216;2023-07-29T11:10:44;512.57;;;355.97;;
8407;SDS011;4241;48.452;9.216;2023-07-29T11:13:24;512.23;;;350.47;;
8407;SDS011;4241;48.452;9.216;2023-07-29T11:15:52;510.53;;;339.17;;
8407;SDS011;4241;48.452;9.216;2023-07-29T11:18:21;510.03;;;339.00;;
8407;SDS011;4241;48.452;9.216;2023-07-29T11:20:48;509.53;;;337.17;;
8407;SDS011;4241;48.452;9.216;2023-07-29T11:23:15;509.83;;;336.37;;
8407;SDS011;4241;48.452;9.216;2023-07-29T11:25:42;510.60;;;335.57;;
8407;SDS011;4241;48.452;9.216;2023-07-29T11:28:09;510.57;;;333.83;;
8407;SDS011;4241;48.452;9.216;2023-07-29T11:30:39;510.60;;;333.73;;
8407;SDS011;4241;48.452;9.216;2023-07-29T11:33:06;509.40;;;332.70;;
8407;SDS011;4241;48.452;9.216;2023-07-29T11:35:33;508.30;;;322.50;;
8407;SDS011;4241;48.452;9.216;2023-07-29T11:38:00;507.57;;;322.03;;
8407;SDS011;4241;48.452;9.216;2023-07-29T11:40:27;506.03;;;317.90;;
8407;SDS011;4241;48.452;9.216;2023-07-29T11:42:53;508.13;;;314.73;;
8407;SDS011;4241;48.452;9.216;2023-07-29T11:45:21;504.73;;;310.93;;
8407;SDS011;4241;48.452;9.216;2023-07-29T11:47:50;503.17;;;307.93;;
8407;SDS011;4241;48.452;9.216;2023-07-29T11:50:17;504.43;;;312.00;;
8407;SDS011;4241;48.452;9.216;2023-07-29T11:52:46;504.63;;;309.53;;
8407;SDS011;4241;48.452;9.216;2023-07-29T11:55:13;508.07;;;314.30;;
8407;SDS011;4241;48.452;9.216;2023-07-29T11:57:41;503.87;;;308.13;;
8407;SDS011;4241;48.452;9.216;2023-07-29T12:00:09;505.23;;;308.53;;
8407;SDS011;4241;48.452;9.216;2023-07-29T12:02:38;503.90;;;305.10;;
8407;SDS011;4241;48.452;9.216;2023-07-29T12:05:07;506.40;;;307.13;;
8407;SDS011;4241;48.452;9.216;2023-07-29T12:07:35;503.07;;;306.00;;
8407;SDS011;4241;48.452;9.216;2023-07-29T12:10:04;506.70;;;309.93;;
8407;SDS011;4241;48.452;9.216;2023-07-29T12:12:32;502.70;;;304.40;;
8407;SDS011;4241;48.452;9.216;2023-07-29T12:14:59;504.03;;;308.50;;
8407;SDS011;4241;48.452;9.216;2023-07-29T12:17:26;506.47;;;314.97;;
8407;SDS011;4241;48.452;9.216;2023-07-29T12:19:54;508.47;;;319.63;;
8407;SDS011;4241;48.452;9.216;2023-07-29T12:22:23;514.33;;;334.90;;
8407;SDS011;4241;48.452;9.216;2023-07-29T12:24:50;508.97;;;331.53;;
8407;SDS011;4241;48.452;9.216;2023-07-29T12:27:18;510.23;;;334.80;;
8407;SDS011;4241;48.452;9.216;2023-07-29T12:29:48;509.37;;;335.60;;
8407;SDS011;4241;48.452;9.216;2023-07-29T12:32:20;508.90;;;336.73;;
8407;SDS011;4241;48.452;9.216;2023-07-29T12:34:53;511.93;;;343.60;;
8407;SDS011;4241;48.452;9.216;2023-07-29T12:37:19;508.97;;;337.60;;
8407;SDS011;4241;48.452;9.216;2023-07-29T12:39:49;508.47;;;337.43;;
8407;SDS011;4241;48.452;9.216;2023-07-29T12:42:16;508.87;;;333.70;;
8407;SDS011;4241;48.452;9.216;2023-07-29T12:44:43;507.40;;;332.03;;
8407;SDS011;4241;48.452;9.216;2023-07-29T12:47:10;510.97;;;337.17;;
8407;SDS011;4241;48.452;9.216;2023-07-29T12:49:37;507.77;;;332.33;;
8407;SDS011;4241;48.452;9.216;2023-07-29T12:52:04;507.50;;;328.47;;
8407;SDS011;4241;48.452;9.216;2023-07-29T12:54:32;508.33;;;332.70;;
8407;SDS011;4241;48.452;9.216;2023-07-29T12:57:00;509.40;;;335.20;;
8407;SDS011;4241;48.452;9.216;2023-07-29T12:59:26;508.30;;;333.83;;
8407;SDS011;4241;48.452;9.216;2023-07-29T13:01:53;510.13;;;342.03;;
8407;SDS011;4241;48.452;9.216;2023-07-29T13:04:20;509.93;;;343.50;;
8407;SDS011;4241;48.452;9.216;2023-07-29T13:06:47;511.33;;;347.73;;
8407;SDS011;4241;48.452;9.216;2023-07-29T13:09:14;511.23;;;346.90;;
8407;SDS011;4241;48.452;9.216;2023-07-29T13:11:41;509.37;;;342.30;;
8407;SDS011;4241;48.452;9.216;2023-07-29T13:14:09;509.27;;;341.53;;
8407;SDS011;4241;48.452;9.216;2023-07-29T13:16:36;510.20;;;347.27;;
8407;SDS011;4241;48.452;9.216;2023-07-29T13:19:03;510.20;;;348.30;;
8407;SDS011;4241;48.452;9.216;2023-07-29T13:21:30;510.33;;;347.27;;
8407;SDS011;4241;48.452;9.216;2023-07-29T13:23:57;519.30;;;355.20;;
8407;SDS011;4241;48.452;9.216;2023-07-29T13:26:24;510.20;;;346.93;;
8407;SDS011;4241;48.452;9.216;2023-07-29T13:28:51;510.67;;;346.97;;
8407;SDS011;4241;48.452;9.216;2023-07-29T13:31:19;510.73;;;343.73;;
8407;SDS011;4241;48.452;9.216;2023-07-29T13:33:46;510.30;;;346.73;;
8407;SDS011;4241;48.452;9.216;2023-07-29T13:36:13;509.03;;;341.13;;
8407;SDS011;4241;48.452;9.216;2023-07-29T13:38:40;509.77;;;340.73;;
8407;SDS011;4241;48.452;9.216;2023-07-29T13:41:07;508.30;;;337.17;;
8407;SDS011;4241;48.452;9.216;2023-07-29T13:43:34;508.77;;;336.43;;
8407;SDS011;4241;48.452;9.216;2023-07-29T13:46:01;508.47;;;335.73;;
8407;SDS011;4241;48.452;9.216;2023-07-29T13:48:29;509.50;;;339.50;;
8407;SDS011;4241;48.452;9.216;2023-07-29T13:50:58;509.87;;;334.93;;
8407;SDS011;4241;48.452;9.216;2023-07-29T13:53:24;507.53;;;332.17;;
8407;SDS011;4241;48.452;9.216;2023-07-29T13:55:51;507.13;;;332.77;;
8407;SDS011;4241;48.452;9.216;2023-07-29T13:58:18;505.40;;;328.80;;
8407;SDS011;4241;48.452;9.216;2023-07-29T14:00:45;506.57;;;331.97;;
8407;SDS011;4241;48.452;9.216;2023-07-29T14:03:12;509.43;;;338.63;;
8407;SDS011;4241;48.452;9.216;2023-07-29T14:05:40;508.33;;;338.97;;
8407;SDS011;4241;48.452;9.216;2023-07-29T14:08:07;507.80;;;338.33;;
8407;SDS011;4241;48.452;9.216;2023-07-29T14:10:33;509.03;;;344.20;;
8407;SDS011;4241;48.452;9.216;2023-07-29T14:13:00;509.33;;;342.87;;
8407;SDS011;4241;48.452;9.216;2023-07-29T14:15:27;507.50;;;339.53;;
8407;SDS011;4241;48.452;9.216;2023-07-29T14:17:54;510.93;;;347.90;;
8407;SDS011;4241;48.452;9.216;2023-07-29T14:20:21;510.57;;;346.80;;
8407;SDS011;4241;48.452;9.216;2023-07-29T14:22:49;513.70;;;352.83;;
8407;SDS011;4241;48.452;9.216;2023-07-29T14:25:16;511.47;;;352.67;;